Terminal Aerodrome Forecast
Issued by NWS

Home | Current Version | Previous Version | Text Only | Print | Product List | Glossary On
Versions: 1 2 3 4 5 6 7 8 9 10 11 12 13 14 15 16 17 18 19
000
FTUS41 KBGM 200539
TAFITH
TAF
KITH 200539Z 2006/2106 17010KT P6SM OVC050 WS020/24045KT
     FM201700 20012KT P6SM BKN060
     FM202300 19009KT P6SM BKN070 WS020/22045KT=

USA.gov is the U.S. government's official web portal to all federal, state and local government web resources and services.